sensor_id;sensor_type;location;lat;lon;timestamp;P1;durP1;ratioP1;P2;durP2;ratioP2
9422;SDS011;65863;49.506;10.400;2023-02-18T00:01:02;4.77;;;4.37;;
9422;SDS011;65863;49.506;10.400;2023-02-18T00:03:51;4.57;;;4.20;;
9422;SDS011;65863;49.506;10.400;2023-02-18T00:06:40;5.13;;;4.67;;
9422;SDS011;65863;49.506;10.400;2023-02-18T00:09:24;5.47;;;4.97;;
9422;SDS011;65863;49.506;10.400;2023-02-18T00:12:08;5.47;;;4.93;;
9422;SDS011;65863;49.506;10.400;2023-02-18T00:14:52;5.90;;;5.40;;
9422;SDS011;65863;49.506;10.400;2023-02-18T00:17:37;5.80;;;5.30;;
9422;SDS011;65863;49.506;10.400;2023-02-18T00:20:21;6.53;;;5.93;;
9422;SDS011;65863;49.506;10.400;2023-02-18T00:23:05;6.20;;;5.70;;
9422;SDS011;65863;49.506;10.400;2023-02-18T00:25:49;6.03;;;5.47;;
9422;SDS011;65863;49.506;10.400;2023-02-18T00:28:33;6.37;;;5.70;;
9422;SDS011;65863;49.506;10.400;2023-02-18T00:31:18;5.63;;;5.13;;
9422;SDS011;65863;49.506;10.400;2023-02-18T00:34:04;5.30;;;4.80;;
9422;SDS011;65863;49.506;10.400;2023-02-18T00:36:48;4.37;;;4.07;;
9422;SDS011;65863;49.506;10.400;2023-02-18T00:39:32;3.93;;;3.60;;
9422;SDS011;65863;49.506;10.400;2023-02-18T00:42:16;4.53;;;4.23;;
9422;SDS011;65863;49.506;10.400;2023-02-18T00:45:01;3.87;;;3.57;;
9422;SDS011;65863;49.506;10.400;2023-02-18T00:47:45;4.20;;;3.90;;
9422;SDS011;65863;49.506;10.400;2023-02-18T00:50:29;3.90;;;3.60;;
9422;SDS011;65863;49.506;10.400;2023-02-18T00:53:14;3.37;;;3.13;;
9422;SDS011;65863;49.506;10.400;2023-02-18T00:55:58;3.60;;;3.30;;
9422;SDS011;65863;49.506;10.400;2023-02-18T00:58:42;3.80;;;3.50;;
9422;SDS011;65863;49.506;10.400;2023-02-18T01:01:26;4.60;;;3.30;;
9422;SDS011;65863;49.506;10.400;2023-02-18T01:04:11;3.67;;;3.37;;
9422;SDS011;65863;49.506;10.400;2023-02-18T01:06:55;3.00;;;2.80;;
9422;SDS011;65863;49.506;10.400;2023-02-18T01:09:39;3.53;;;3.23;;
9422;SDS011;65863;49.506;10.400;2023-02-18T01:12:24;3.70;;;3.30;;
9422;SDS011;65863;49.506;10.400;2023-02-18T01:15:08;3.53;;;3.23;;
9422;SDS011;65863;49.506;10.400;2023-02-18T01:17:52;3.50;;;3.20;;
9422;SDS011;65863;49.506;10.400;2023-02-18T01:20:37;3.50;;;3.20;;
9422;SDS011;65863;49.506;10.400;2023-02-18T01:23:24;3.43;;;3.13;;
9422;SDS011;65863;49.506;10.400;2023-02-18T01:26:09;3.27;;;3.07;;
9422;SDS011;65863;49.506;10.400;2023-02-18T01:28:54;3.67;;;3.07;;
9422;SDS011;65863;49.506;10.400;2023-02-18T01:31:38;3.33;;;3.00;;
9422;SDS011;65863;49.506;10.400;2023-02-18T01:34:22;2.80;;;2.60;;
9422;SDS011;65863;49.506;10.400;2023-02-18T01:37:07;3.43;;;3.13;;
9422;SDS011;65863;49.506;10.400;2023-02-18T01:39:53;3.63;;;3.33;;
9422;SDS011;65863;49.506;10.400;2023-02-18T01:42:37;3.13;;;2.83;;
9422;SDS011;65863;49.506;10.400;2023-02-18T01:48:22;3.37;;;3.07;;
9422;SDS011;65863;49.506;10.400;2023-02-18T01:53:59;2.90;;;2.70;;
9422;SDS011;65863;49.506;10.400;2023-02-18T01:57:02;3.07;;;2.87;;
9422;SDS011;65863;49.506;10.400;2023-02-18T01:59:53;2.90;;;2.70;;
9422;SDS011;65863;49.506;10.400;2023-02-18T02:02:41;3.00;;;2.70;;
9422;SDS011;65863;49.506;10.400;2023-02-18T02:05:29;2.70;;;2.50;;
9422;SDS011;65863;49.506;10.400;2023-02-18T02:08:16;2.53;;;2.33;;
9422;SDS011;65863;49.506;10.400;2023-02-18T02:11:03;3.13;;;2.70;;
9422;SDS011;65863;49.506;10.400;2023-02-18T02:14:04;3.33;;;2.60;;
9422;SDS011;65863;49.506;10.400;2023-02-18T02:17:03;2.60;;;2.40;;
9422;SDS011;65863;49.506;10.400;2023-02-18T02:32:42;2.77;;;2.57;;
9422;SDS011;65863;49.506;10.400;2023-02-18T02:41:26;2.90;;;2.70;;
9422;SDS011;65863;49.506;10.400;2023-02-18T02:44:56;2.40;;;2.20;;
9422;SDS011;65863;49.506;10.400;2023-02-18T02:54:20;3.10;;;2.60;;
9422;SDS011;65863;49.506;10.400;2023-02-18T03:00:07;2.30;;;2.20;;
9422;SDS011;65863;49.506;10.400;2023-02-18T03:03:00;2.70;;;2.50;;
9422;SDS011;65863;49.506;10.400;2023-02-18T03:06:56;2.20;;;2.00;;
9422;SDS011;65863;49.506;10.400;2023-02-18T03:12:57;2.73;;;2.30;;
9422;SDS011;65863;49.506;10.400;2023-02-18T03:22:00;2.87;;;2.60;;
9422;SDS011;65863;49.506;10.400;2023-02-18T03:24:57;2.50;;;2.30;;
9422;SDS011;65863;49.506;10.400;2023-02-18T03:27:43;2.47;;;2.30;;
9422;SDS011;65863;49.506;10.400;2023-02-18T03:30:40;2.80;;;2.60;;
9422;SDS011;65863;49.506;10.400;2023-02-18T03:33:32;4.73;;;2.83;;
9422;SDS011;65863;49.506;10.400;2023-02-18T03:36:20;2.90;;;2.70;;
9422;SDS011;65863;49.506;10.400;2023-02-18T03:39:17;4.00;;;2.60;;
9422;SDS011;65863;49.506;10.400;2023-02-18T03:42:04;2.90;;;2.70;;
9422;SDS011;65863;49.506;10.400;2023-02-18T03:44:48;2.70;;;2.50;;
9422;SDS011;65863;49.506;10.400;2023-02-18T03:47:32;3.00;;;2.80;;
9422;SDS011;65863;49.506;10.400;2023-02-18T03:50:17;3.30;;;3.10;;
9422;SDS011;65863;49.506;10.400;2023-02-18T03:53:01;3.30;;;3.00;;
9422;SDS011;65863;49.506;10.400;2023-02-18T03:55:45;3.40;;;3.10;;
9422;SDS011;65863;49.506;10.400;2023-02-18T03:58:29;5.23;;;3.27;;
9422;SDS011;65863;49.506;10.400;2023-02-18T04:01:13;3.70;;;3.40;;
9422;SDS011;65863;49.506;10.400;2023-02-18T04:03:57;4.07;;;3.30;;
9422;SDS011;65863;49.506;10.400;2023-02-18T04:06:41;3.13;;;2.93;;
9422;SDS011;65863;49.506;10.400;2023-02-18T04:09:25;3.23;;;3.03;;
9422;SDS011;65863;49.506;10.400;2023-02-18T04:12:09;6.00;;;3.83;;
9422;SDS011;65863;49.506;10.400;2023-02-18T04:14:53;3.30;;;3.00;;
9422;SDS011;65863;49.506;10.400;2023-02-18T04:17:37;3.13;;;2.93;;
9422;SDS011;65863;49.506;10.400;2023-02-18T04:20:21;3.67;;;3.27;;
9422;SDS011;65863;49.506;10.400;2023-02-18T04:23:06;3.53;;;3.20;;
9422;SDS011;65863;49.506;10.400;2023-02-18T04:25:50;3.47;;;3.23;;
9422;SDS011;65863;49.506;10.400;2023-02-18T04:28:34;3.40;;;3.10;;
9422;SDS011;65863;49.506;10.400;2023-02-18T04:31:18;4.13;;;3.80;;
9422;SDS011;65863;49.506;10.400;2023-02-18T04:34:02;3.50;;;3.27;;
9422;SDS011;65863;49.506;10.400;2023-02-18T04:36:46;3.60;;;3.30;;
9422;SDS011;65863;49.506;10.400;2023-02-18T04:39:30;3.40;;;3.10;;
9422;SDS011;65863;49.506;10.400;2023-02-18T04:42:14;3.77;;;3.47;;
9422;SDS011;65863;49.506;10.400;2023-02-18T04:44:58;3.70;;;3.40;;
9422;SDS011;65863;49.506;10.400;2023-02-18T04:47:42;3.53;;;3.23;;
9422;SDS011;65863;49.506;10.400;2023-02-18T04:50:26;3.43;;;3.13;;
9422;SDS011;65863;49.506;10.400;2023-02-18T04:53:10;3.37;;;3.13;;
9422;SDS011;65863;49.506;10.400;2023-02-18T04:55:55;3.47;;;3.20;;
9422;SDS011;65863;49.506;10.400;2023-02-18T04:58:39;3.60;;;3.30;;
9422;SDS011;65863;49.506;10.400;2023-02-18T05:01:23;3.27;;;3.07;;
9422;SDS011;65863;49.506;10.400;2023-02-18T05:04:07;3.57;;;3.27;;
9422;SDS011;65863;49.506;10.400;2023-02-18T05:06:51;3.17;;;2.93;;
9422;SDS011;65863;49.506;10.400;2023-02-18T05:09:35;3.80;;;3.50;;
9422;SDS011;65863;49.506;10.400;2023-02-18T05:12:19;3.40;;;3.20;;
9422;SDS011;65863;49.506;10.400;2023-02-18T05:15:03;3.23;;;3.03;;
9422;SDS011;65863;49.506;10.400;2023-02-18T05:17:47;3.83;;;3.53;;
9422;SDS011;65863;49.506;10.400;2023-02-18T05:20:31;3.60;;;3.30;;
9422;SDS011;65863;49.506;10.400;2023-02-18T05:23:15;3.40;;;3.10;;
9422;SDS011;65863;49.506;10.400;2023-02-18T05:26:02;3.57;;;3.27;;
9422;SDS011;65863;49.506;10.400;2023-02-18T05:28:46;4.03;;;3.70;;
9422;SDS011;65863;49.506;10.400;2023-02-18T05:31:31;4.50;;;4.10;;
9422;SDS011;65863;49.506;10.400;2023-02-18T05:34:15;4.90;;;4.50;;
9422;SDS011;65863;49.506;10.400;2023-02-18T05:36:59;4.23;;;3.83;;
9422;SDS011;65863;49.506;10.400;2023-02-18T05:39:43;5.10;;;4.70;;
9422;SDS011;65863;49.506;10.400;2023-02-18T05:42:27;4.80;;;4.40;;
9422;SDS011;65863;49.506;10.400;2023-02-18T05:45:12;5.67;;;5.17;;
9422;SDS011;65863;49.506;10.400;2023-02-18T05:47:55;5.53;;;5.03;;
9422;SDS011;65863;49.506;10.400;2023-02-18T05:50:40;5.50;;;5.00;;
9422;SDS011;65863;49.506;10.400;2023-02-18T05:53:24;5.60;;;5.10;;
9422;SDS011;65863;49.506;10.400;2023-02-18T05:56:08;5.63;;;5.03;;
9422;SDS011;65863;49.506;10.400;2023-02-18T05:58:51;5.50;;;5.00;;
9422;SDS011;65863;49.506;10.400;2023-02-18T06:01:35;5.90;;;5.40;;
9422;SDS011;65863;49.506;10.400;2023-02-18T06:04:19;6.10;;;5.50;;
9422;SDS011;65863;49.506;10.400;2023-02-18T06:07:03;6.10;;;5.50;;
9422;SDS011;65863;49.506;10.400;2023-02-18T06:09:47;7.10;;;5.70;;
9422;SDS011;65863;49.506;10.400;2023-02-18T06:12:32;5.73;;;5.23;;
9422;SDS011;65863;49.506;10.400;2023-02-18T06:15:15;7.87;;;5.77;;
9422;SDS011;65863;49.506;10.400;2023-02-18T06:18:00;8.70;;;6.23;;
9422;SDS011;65863;49.506;10.400;2023-02-18T06:20:45;7.03;;;6.17;;
9422;SDS011;65863;49.506;10.400;2023-02-18T06:23:30;6.47;;;5.87;;
9422;SDS011;65863;49.506;10.400;2023-02-18T06:26:14;8.07;;;6.67;;
9422;SDS011;65863;49.506;10.400;2023-02-18T06:28:58;8.83;;;7.47;;
9422;SDS011;65863;49.506;10.400;2023-02-18T06:31:42;8.73;;;7.90;;
9422;SDS011;65863;49.506;10.400;2023-02-18T06:34:26;9.07;;;8.17;;
9422;SDS011;65863;49.506;10.400;2023-02-18T06:37:10;9.03;;;8.23;;
9422;SDS011;65863;49.506;10.400;2023-02-18T06:39:54;8.70;;;7.90;;
9422;SDS011;65863;49.506;10.400;2023-02-18T06:42:38;10.90;;;9.20;;
9422;SDS011;65863;49.506;10.400;2023-02-18T06:45:23;9.80;;;8.90;;
9422;SDS011;65863;49.506;10.400;2023-02-18T06:48:07;9.90;;;9.00;;
9422;SDS011;65863;49.506;10.400;2023-02-18T06:50:52;10.07;;;8.70;;
9422;SDS011;65863;49.506;10.400;2023-02-18T06:53:36;10.13;;;9.13;;
9422;SDS011;65863;49.506;10.400;2023-02-18T06:56:20;10.77;;;9.63;;
9422;SDS011;65863;49.506;10.400;2023-02-18T06:59:04;11.00;;;9.90;;
9422;SDS011;65863;49.506;10.400;2023-02-18T07:01:48;10.57;;;9.47;;
9422;SDS011;65863;49.506;10.400;2023-02-18T07:04:32;10.03;;;9.03;;
9422;SDS011;65863;49.506;10.400;2023-02-18T07:07:16;12.07;;;10.40;;
9422;SDS011;65863;49.506;10.400;2023-02-18T07:10:00;10.67;;;9.57;;
9422;SDS011;65863;49.506;10.400;2023-02-18T07:12:44;11.43;;;9.57;;
9422;SDS011;65863;49.506;10.400;2023-02-18T07:15:28;10.90;;;9.90;;
9422;SDS011;65863;49.506;10.400;2023-02-18T07:18:12;9.90;;;9.00;;
9422;SDS011;65863;49.506;10.400;2023-02-18T07:20:57;10.23;;;9.33;;
9422;SDS011;65863;49.506;10.400;2023-02-18T07:23:41;9.37;;;8.47;;
9422;SDS011;65863;49.506;10.400;2023-02-18T07:26:38;9.13;;;8.33;;
9422;SDS011;65863;49.506;10.400;2023-02-18T07:29:22;9.27;;;8.20;;
9422;SDS011;65863;49.506;10.400;2023-02-18T07:32:05;8.80;;;7.90;;
9422;SDS011;65863;49.506;10.400;2023-02-18T07:34:50;8.77;;;7.97;;
9422;SDS011;65863;49.506;10.400;2023-02-18T07:37:35;7.63;;;6.93;;
9422;SDS011;65863;49.506;10.400;2023-02-18T07:40:20;8.17;;;7.37;;
9422;SDS011;65863;49.506;10.400;2023-02-18T07:43:04;6.97;;;6.37;;
9422;SDS011;65863;49.506;10.400;2023-02-18T07:45:48;7.33;;;6.60;;
9422;SDS011;65863;49.506;10.400;2023-02-18T07:48:32;7.13;;;6.30;;
9422;SDS011;65863;49.506;10.400;2023-02-18T07:51:16;7.23;;;6.33;;
9422;SDS011;65863;49.506;10.400;2023-02-18T07:54:00;6.23;;;5.73;;
9422;SDS011;65863;49.506;10.400;2023-02-18T07:56:44;6.70;;;6.10;;
9422;SDS011;65863;49.506;10.400;2023-02-18T07:59:29;6.40;;;5.80;;
9422;SDS011;65863;49.506;10.400;2023-02-18T08:02:17;6.23;;;5.67;;
9422;SDS011;65863;49.506;10.400;2023-02-18T08:05:03;5.83;;;5.30;;
9422;SDS011;65863;49.506;10.400;2023-02-18T08:07:47;6.67;;;5.60;;
9422;SDS011;65863;49.506;10.400;2023-02-18T08:10:31;5.80;;;5.27;;
9422;SDS011;65863;49.506;10.400;2023-02-18T08:13:16;6.43;;;5.83;;
9422;SDS011;65863;49.506;10.400;2023-02-18T08:15:59;6.20;;;5.20;;
9422;SDS011;65863;49.506;10.400;2023-02-18T08:18:44;6.10;;;5.50;;
9422;SDS011;65863;49.506;10.400;2023-02-18T08:21:28;6.27;;;5.67;;
9422;SDS011;65863;49.506;10.400;2023-02-18T08:24:12;5.53;;;4.63;;
9422;SDS011;65863;49.506;10.400;2023-02-18T08:26:56;5.93;;;5.33;;
9422;SDS011;65863;49.506;10.400;2023-02-18T08:29:40;5.03;;;4.53;;
9422;SDS011;65863;49.506;10.400;2023-02-18T08:32:28;5.47;;;4.97;;
9422;SDS011;65863;49.506;10.400;2023-02-18T08:38:01;4.53;;;4.13;;
9422;SDS011;65863;49.506;10.400;2023-02-18T08:40:46;4.57;;;3.77;;
9422;SDS011;65863;49.506;10.400;2023-02-18T08:43:30;6.27;;;4.47;;
9422;SDS011;65863;49.506;10.400;2023-02-18T08:46:14;4.43;;;4.03;;
9422;SDS011;65863;49.506;10.400;2023-02-18T08:49:00;4.60;;;4.20;;
9422;SDS011;65863;49.506;10.400;2023-02-18T08:51:44;4.30;;;3.90;;
9422;SDS011;65863;49.506;10.400;2023-02-18T08:54:28;4.57;;;4.10;;
9422;SDS011;65863;49.506;10.400;2023-02-18T08:57:12;4.10;;;3.70;;
9422;SDS011;65863;49.506;10.400;2023-02-18T08:59:56;3.73;;;3.33;;
9422;SDS011;65863;49.506;10.400;2023-02-18T09:02:40;4.37;;;3.97;;
9422;SDS011;65863;49.506;10.400;2023-02-18T09:05:25;3.67;;;3.38;;
9422;SDS011;65863;49.506;10.400;2023-02-18T09:08:09;4.37;;;3.97;;
9422;SDS011;65863;49.506;10.400;2023-02-18T09:10:56;4.90;;;3.63;;
9422;SDS011;65863;49.506;10.400;2023-02-18T09:13:51;3.10;;;2.80;;
9422;SDS011;65863;49.506;10.400;2023-02-18T09:16:35;3.30;;;3.00;;
9422;SDS011;65863;49.506;10.400;2023-02-18T09:19:20;4.27;;;2.63;;
9422;SDS011;65863;49.506;10.400;2023-02-18T09:22:04;3.13;;;2.77;;
9422;SDS011;65863;49.506;10.400;2023-02-18T09:24:48;3.60;;;2.83;;
9422;SDS011;65863;49.506;10.400;2023-02-18T09:27:33;3.37;;;3.00;;
9422;SDS011;65863;49.506;10.400;2023-02-18T09:30:16;3.40;;;2.77;;
9422;SDS011;65863;49.506;10.400;2023-02-18T09:33:01;5.20;;;3.30;;
9422;SDS011;65863;49.506;10.400;2023-02-18T09:35:45;4.10;;;3.07;;
9422;SDS011;65863;49.506;10.400;2023-02-18T09:38:29;3.57;;;3.27;;
9422;SDS011;65863;49.506;10.400;2023-02-18T09:44:19;3.60;;;3.00;;
9422;SDS011;65863;49.506;10.400;2023-02-18T09:47:12;4.70;;;2.90;;
9422;SDS011;65863;49.506;10.400;2023-02-18T09:52:54;5.23;;;2.87;;
9422;SDS011;65863;49.506;10.400;2023-02-18T09:55:41;4.43;;;2.93;;
9422;SDS011;65863;49.506;10.400;2023-02-18T09:58:27;3.23;;;3.00;;
9422;SDS011;65863;49.506;10.400;2023-02-18T10:04:19;3.50;;;3.20;;
9422;SDS011;65863;49.506;10.400;2023-02-18T10:07:09;3.73;;;3.07;;
9422;SDS011;65863;49.506;10.400;2023-02-18T10:10:14;4.63;;;3.40;;
9422;SDS011;65863;49.506;10.400;2023-02-18T10:13:09;3.23;;;2.93;;
9422;SDS011;65863;49.506;10.400;2023-02-18T10:15:59;3.20;;;2.90;;
9422;SDS011;65863;49.506;10.400;2023-02-18T10:18:45;3.53;;;3.23;;
9422;SDS011;65863;49.506;10.400;2023-02-18T10:21:32;3.67;;;3.07;;
9422;SDS011;65863;49.506;10.400;2023-02-18T10:27:08;3.27;;;2.97;;
9422;SDS011;65863;49.506;10.400;2023-02-18T10:36:23;3.37;;;3.07;;
9422;SDS011;65863;49.506;10.400;2023-02-18T10:51:11;3.13;;;2.87;;
9422;SDS011;65863;49.506;10.400;2023-02-18T10:54:03;3.80;;;3.43;;
9422;SDS011;65863;49.506;10.400;2023-02-18T10:56:50;3.90;;;2.70;;
9422;SDS011;65863;49.506;10.400;2023-02-18T10:59:35;5.17;;;3.17;;
9422;SDS011;65863;49.506;10.400;2023-02-18T11:02:19;3.50;;;3.20;;
9422;SDS011;65863;49.506;10.400;2023-02-18T11:05:23;3.07;;;2.80;;
9422;SDS011;65863;49.506;10.400;2023-02-18T11:08:10;3.00;;;2.70;;
9422;SDS011;65863;49.506;10.400;2023-02-18T11:10:59;3.00;;;2.80;;
9422;SDS011;65863;49.506;10.400;2023-02-18T11:13:57;7.30;;;3.13;;
9422;SDS011;65863;49.506;10.400;2023-02-18T11:16:44;3.20;;;3.00;;
9422;SDS011;65863;49.506;10.400;2023-02-18T11:19:34;2.80;;;2.60;;
9422;SDS011;65863;49.506;10.400;2023-02-18T11:22:22;2.73;;;2.53;;
9422;SDS011;65863;49.506;10.400;2023-02-18T11:25:18;2.97;;;2.73;;
9422;SDS011;65863;49.506;10.400;2023-02-18T11:28:28;2.87;;;2.67;;
9422;SDS011;65863;49.506;10.400;2023-02-18T11:31:16;3.00;;;2.77;;
9422;SDS011;65863;49.506;10.400;2023-02-18T11:34:05;3.13;;;2.50;;
9422;SDS011;65863;49.506;10.400;2023-02-18T11:37:09;3.10;;;2.80;;
9422;SDS011;65863;49.506;10.400;2023-02-18T11:40:00;2.90;;;2.53;;
9422;SDS011;65863;49.506;10.400;2023-02-18T11:42:44;3.77;;;2.50;;
9422;SDS011;65863;49.506;10.400;2023-02-18T11:45:29;2.97;;;2.70;;
9422;SDS011;65863;49.506;10.400;2023-02-18T11:48:17;2.70;;;2.50;;
9422;SDS011;65863;49.506;10.400;2023-02-18T11:51:07;2.67;;;2.47;;
9422;SDS011;65863;49.506;10.400;2023-02-18T11:53:59;2.70;;;2.50;;
9422;SDS011;65863;49.506;10.400;2023-02-18T11:56:57;2.77;;;2.57;;
9422;SDS011;65863;49.506;10.400;2023-02-18T11:59:44;2.63;;;2.43;;
9422;SDS011;65863;49.506;10.400;2023-02-18T12:05:22;3.27;;;2.97;;
9422;SDS011;65863;49.506;10.400;2023-02-18T12:10:53;3.63;;;3.00;;
9422;SDS011;65863;49.506;10.400;2023-02-18T12:13:49;3.53;;;2.63;;
9422;SDS011;65863;49.506;10.400;2023-02-18T12:16:45;3.47;;;2.63;;
9422;SDS011;65863;49.506;10.400;2023-02-18T12:25:57;2.90;;;2.70;;
9422;SDS011;65863;49.506;10.400;2023-02-18T12:35:00;3.20;;;2.60;;
9422;SDS011;65863;49.506;10.400;2023-02-18T12:41:16;2.50;;;2.27;;
9422;SDS011;65863;49.506;10.400;2023-02-18T12:53:43;2.50;;;2.30;;
9422;SDS011;65863;49.506;10.400;2023-02-18T12:59:45;2.87;;;2.50;;
9422;SDS011;65863;49.506;10.400;2023-02-18T13:05:43;2.90;;;2.33;;
9422;SDS011;65863;49.506;10.400;2023-02-18T13:09:02;2.53;;;2.30;;
9422;SDS011;65863;49.506;10.400;2023-02-18T13:15:38;3.80;;;2.50;;
9422;SDS011;65863;49.506;10.400;2023-02-18T13:18:37;3.03;;;2.50;;
9422;SDS011;65863;49.506;10.400;2023-02-18T13:21:25;3.50;;;2.40;;
9422;SDS011;65863;49.506;10.400;2023-02-18T13:24:24;2.77;;;2.57;;
9422;SDS011;65863;49.506;10.400;2023-02-18T13:33:28;4.37;;;2.60;;
9422;SDS011;65863;49.506;10.400;2023-02-18T13:36:26;3.73;;;3.40;;
9422;SDS011;65863;49.506;10.400;2023-02-18T13:39:20;9.17;;;6.50;;
9422;SDS011;65863;49.506;10.400;2023-02-18T13:42:11;8.87;;;6.13;;
9422;SDS011;65863;49.506;10.400;2023-02-18T13:47:45;11.60;;;7.37;;
9422;SDS011;65863;49.506;10.400;2023-02-18T13:50:38;10.33;;;6.87;;
9422;SDS011;65863;49.506;10.400;2023-02-18T13:53:25;7.67;;;5.90;;
9422;SDS011;65863;49.506;10.400;2023-02-18T13:59:18;3.97;;;3.57;;
9422;SDS011;65863;49.506;10.400;2023-02-18T14:07:52;4.20;;;3.60;;
9422;SDS011;65863;49.506;10.400;2023-02-18T14:13:54;4.60;;;3.77;;
9422;SDS011;65863;49.506;10.400;2023-02-18T14:17:13;4.87;;;3.40;;
9422;SDS011;65863;49.506;10.400;2023-02-18T14:22:52;4.30;;;3.90;;
9422;SDS011;65863;49.506;10.400;2023-02-18T14:25:39;3.80;;;3.17;;
9422;SDS011;65863;49.506;10.400;2023-02-18T14:31:24;3.93;;;3.53;;
9422;SDS011;65863;49.506;10.400;2023-02-18T14:34:17;4.00;;;3.60;;
9422;SDS011;65863;49.506;10.400;2023-02-18T14:40:26;3.90;;;3.60;;
9422;SDS011;65863;49.506;10.400;2023-02-18T14:50:00;3.70;;;3.40;;
9422;SDS011;65863;49.506;10.400;2023-02-18T14:52:48;3.77;;;3.47;;
9422;SDS011;65863;49.506;10.400;2023-02-18T14:55:37;4.83;;;3.50;;
9422;SDS011;65863;49.506;10.400;2023-02-18T15:01:45;3.67;;;3.37;;
9422;SDS011;65863;49.506;10.400;2023-02-18T15:04:29;3.20;;;2.90;;
9422;SDS011;65863;49.506;10.400;2023-02-18T15:07:13;3.67;;;2.87;;
9422;SDS011;65863;49.506;10.400;2023-02-18T15:10:02;3.10;;;2.80;;
9422;SDS011;65863;49.506;10.400;2023-02-18T15:12:46;3.77;;;2.70;;
9422;SDS011;65863;49.506;10.400;2023-02-18T15:15:31;4.10;;;3.10;;
9422;SDS011;65863;49.506;10.400;2023-02-18T15:18:20;3.90;;;2.90;;
9422;SDS011;65863;49.506;10.400;2023-02-18T15:21:19;6.03;;;3.10;;
9422;SDS011;65863;49.506;10.400;2023-02-18T15:27:20;3.10;;;2.80;;
9422;SDS011;65863;49.506;10.400;2023-02-18T15:33:21;4.40;;;3.10;;
9422;SDS011;65863;49.506;10.400;2023-02-18T15:36:06;3.30;;;2.73;;
9422;SDS011;65863;49.506;10.400;2023-02-18T15:38:56;3.80;;;3.20;;
9422;SDS011;65863;49.506;10.400;2023-02-18T15:41:41;4.23;;;2.83;;
9422;SDS011;65863;49.506;10.400;2023-02-18T15:44:26;3.47;;;3.17;;
9422;SDS011;65863;49.506;10.400;2023-02-18T15:47:12;3.67;;;2.70;;
9422;SDS011;65863;49.506;10.400;2023-02-18T15:50:00;3.90;;;3.23;;
9422;SDS011;65863;49.506;10.400;2023-02-18T15:52:46;2.80;;;2.60;;
9422;SDS011;65863;49.506;10.400;2023-02-18T15:55:35;3.33;;;2.80;;
9422;SDS011;65863;49.506;10.400;2023-02-18T15:58:29;4.10;;;3.70;;
9422;SDS011;65863;49.506;10.400;2023-02-18T16:01:27;3.50;;;2.80;;
9422;SDS011;65863;49.506;10.400;2023-02-18T16:04:12;2.70;;;2.50;;
9422;SDS011;65863;49.506;10.400;2023-02-18T16:06:58;2.93;;;2.67;;
9422;SDS011;65863;49.506;10.400;2023-02-18T16:09:47;3.13;;;2.87;;
9422;SDS011;65863;49.506;10.400;2023-02-18T16:12:31;6.43;;;2.90;;
9422;SDS011;65863;49.506;10.400;2023-02-18T16:15:22;3.17;;;2.97;;
9422;SDS011;65863;49.506;10.400;2023-02-18T16:18:24;5.47;;;3.13;;
9422;SDS011;65863;49.506;10.400;2023-02-18T16:24:02;3.47;;;3.10;;
9422;SDS011;65863;49.506;10.400;2023-02-18T16:27:05;6.03;;;2.77;;
9422;SDS011;65863;49.506;10.400;2023-02-18T16:30:02;3.47;;;2.60;;
9422;SDS011;65863;49.506;10.400;2023-02-18T16:33:00;3.43;;;3.13;;
9422;SDS011;65863;49.506;10.400;2023-02-18T16:35:44;2.83;;;2.63;;
9422;SDS011;65863;49.506;10.400;2023-02-18T16:38:29;3.13;;;2.90;;
9422;SDS011;65863;49.506;10.400;2023-02-18T16:41:13;2.93;;;2.73;;
9422;SDS011;65863;49.506;10.400;2023-02-18T16:43:57;5.40;;;3.23;;
9422;SDS011;65863;49.506;10.400;2023-02-18T16:46:53;4.87;;;3.50;;
9422;SDS011;65863;49.506;10.400;2023-02-18T16:49:37;3.90;;;3.50;;
9422;SDS011;65863;49.506;10.400;2023-02-18T16:52:24;4.33;;;3.50;;
9422;SDS011;65863;49.506;10.400;2023-02-18T16:55:19;4.03;;;3.40;;
9422;SDS011;65863;49.506;10.400;2023-02-18T16:58:08;3.97;;;3.57;;
9422;SDS011;65863;49.506;10.400;2023-02-18T17:00:52;5.53;;;3.23;;
9422;SDS011;65863;49.506;10.400;2023-02-18T17:03:36;3.90;;;3.43;;
9422;SDS011;65863;49.506;10.400;2023-02-18T17:06:20;4.13;;;3.53;;
9422;SDS011;65863;49.506;10.400;2023-02-18T17:09:09;4.00;;;3.50;;
9422;SDS011;65863;49.506;10.400;2023-02-18T17:11:59;3.60;;;3.27;;
9422;SDS011;65863;49.506;10.400;2023-02-18T17:14:45;3.90;;;3.27;;
9422;SDS011;65863;49.506;10.400;2023-02-18T17:17:30;4.20;;;3.40;;
9422;SDS011;65863;49.506;10.400;2023-02-18T17:20:14;3.33;;;3.03;;
9422;SDS011;65863;49.506;10.400;2023-02-18T17:22:58;4.23;;;3.60;;
9422;SDS011;65863;49.506;10.400;2023-02-18T17:25:42;3.57;;;3.27;;
9422;SDS011;65863;49.506;10.400;2023-02-18T17:28:28;3.93;;;3.50;;
9422;SDS011;65863;49.506;10.400;2023-02-18T17:31:16;3.50;;;3.20;;
9422;SDS011;65863;49.506;10.400;2023-02-18T17:34:06;4.00;;;3.60;;
9422;SDS011;65863;49.506;10.400;2023-02-18T17:36:52;3.93;;;3.53;;
9422;SDS011;65863;49.506;10.400;2023-02-18T17:39:36;3.70;;;3.40;;
9422;SDS011;65863;49.506;10.400;2023-02-18T17:42:20;4.03;;;3.40;;
9422;SDS011;65863;49.506;10.400;2023-02-18T17:45:10;3.57;;;3.07;;
9422;SDS011;65863;49.506;10.400;2023-02-18T17:47:56;4.10;;;3.47;;
9422;SDS011;65863;49.506;10.400;2023-02-18T17:50:42;4.40;;;4.00;;
9422;SDS011;65863;49.506;10.400;2023-02-18T17:53:26;4.00;;;3.60;;
9422;SDS011;65863;49.506;10.400;2023-02-18T17:56:10;3.90;;;3.50;;
9422;SDS011;65863;49.506;10.400;2023-02-18T17:58:55;4.37;;;3.70;;
9422;SDS011;65863;49.506;10.400;2023-02-18T18:01:39;4.47;;;4.03;;
9422;SDS011;65863;49.506;10.400;2023-02-18T18:04:24;4.23;;;3.83;;
9422;SDS011;65863;49.506;10.400;2023-02-18T18:07:09;4.23;;;3.83;;
9422;SDS011;65863;49.506;10.400;2023-02-18T18:09:53;5.00;;;4.27;;
9422;SDS011;65863;49.506;10.400;2023-02-18T18:12:37;4.33;;;3.90;;
9422;SDS011;65863;49.506;10.400;2023-02-18T18:15:23;4.23;;;3.80;;
9422;SDS011;65863;49.506;10.400;2023-02-18T18:18:11;5.03;;;3.93;;
9422;SDS011;65863;49.506;10.400;2023-02-18T18:20:57;4.37;;;3.97;;
9422;SDS011;65863;49.506;10.400;2023-02-18T18:23:43;6.07;;;4.10;;
9422;SDS011;65863;49.506;10.400;2023-02-18T18:26:27;4.60;;;4.17;;
9422;SDS011;65863;49.506;10.400;2023-02-18T18:29:12;4.53;;;4.13;;
9422;SDS011;65863;49.506;10.400;2023-02-18T18:31:56;4.77;;;4.37;;
9422;SDS011;65863;49.506;10.400;2023-02-18T18:34:40;6.70;;;4.50;;
9422;SDS011;65863;49.506;10.400;2023-02-18T18:37:27;6.47;;;4.80;;
9422;SDS011;65863;49.506;10.400;2023-02-18T18:40:11;7.53;;;4.93;;
9422;SDS011;65863;49.506;10.400;2023-02-18T18:42:55;5.40;;;4.63;;
9422;SDS011;65863;49.506;10.400;2023-02-18T18:45:40;5.20;;;4.60;;
9422;SDS011;65863;49.506;10.400;2023-02-18T18:48:24;7.37;;;4.60;;
9422;SDS011;65863;49.506;10.400;2023-02-18T18:51:19;4.93;;;4.43;;
9422;SDS011;65863;49.506;10.400;2023-02-18T18:54:08;5.57;;;4.63;;
9422;SDS011;65863;49.506;10.400;2023-02-18T18:56:54;4.80;;;4.40;;
9422;SDS011;65863;49.506;10.400;2023-02-18T18:59:38;5.10;;;4.60;;
9422;SDS011;65863;49.506;10.400;2023-02-18T19:02:22;4.93;;;4.43;;
9422;SDS011;65863;49.506;10.400;2023-02-18T19:05:10;4.53;;;4.10;;
9422;SDS011;65863;49.506;10.400;2023-02-18T19:08:00;4.83;;;4.30;;
9422;SDS011;65863;49.506;10.400;2023-02-18T19:10:52;5.00;;;4.50;;
9422;SDS011;65863;49.506;10.400;2023-02-18T19:13:38;5.03;;;4.30;;
9422;SDS011;65863;49.506;10.400;2023-02-18T19:16:31;4.53;;;4.07;;
9422;SDS011;65863;49.506;10.400;2023-02-18T19:19:17;4.80;;;4.40;;
9422;SDS011;65863;49.506;10.400;2023-02-18T19:22:03;6.07;;;4.40;;
9422;SDS011;65863;49.506;10.400;2023-02-18T19:24:47;5.13;;;4.10;;
9422;SDS011;65863;49.506;10.400;2023-02-18T19:27:35;4.47;;;4.07;;
9422;SDS011;65863;49.506;10.400;2023-02-18T19:30:24;5.07;;;4.57;;
9422;SDS011;65863;49.506;10.400;2023-02-18T19:33:10;5.23;;;4.73;;
9422;SDS011;65863;49.506;10.400;2023-02-18T19:35:55;5.57;;;5.07;;